sensor_id;sensor_type;location;lat;lon;timestamp;P1;durP1;ratioP1;P2;durP2;ratioP2
71715;SDS011;59568;52.128;5.434;2023-02-28T00:01:20;5.23;;;2.03;;
71715;SDS011;59568;52.128;5.434;2023-02-28T00:03:47;4.00;;;2.03;;
71715;SDS011;59568;52.128;5.434;2023-02-28T00:06:14;6.03;;;1.60;;
71715;SDS011;59568;52.128;5.434;2023-02-28T00:08:40;7.80;;;2.63;;
71715;SDS011;59568;52.128;5.434;2023-02-28T00:11:08;4.13;;;2.05;;
71715;SDS011;59568;52.128;5.434;2023-02-28T00:13:38;6.17;;;2.20;;
71715;SDS011;59568;52.128;5.434;2023-02-28T00:16:08;8.77;;;2.40;;
71715;SDS011;59568;52.128;5.434;2023-02-28T00:18:36;4.20;;;2.10;;
71715;SDS011;59568;52.128;5.434;2023-02-28T00:21:03;3.78;;;1.83;;
71715;SDS011;59568;52.128;5.434;2023-02-28T00:23:30;5.80;;;2.22;;
71715;SDS011;59568;52.128;5.434;2023-02-28T00:25:57;5.57;;;2.07;;
71715;SDS011;59568;52.128;5.434;2023-02-28T00:28:24;4.20;;;1.92;;
71715;SDS011;59568;52.128;5.434;2023-02-28T00:30:50;3.70;;;1.67;;
71715;SDS011;59568;52.128;5.434;2023-02-28T00:33:17;5.40;;;2.03;;
71715;SDS011;59568;52.128;5.434;2023-02-28T00:35:44;3.75;;;1.90;;
71715;SDS011;59568;52.128;5.434;2023-02-28T00:38:13;5.83;;;2.43;;
71715;SDS011;59568;52.128;5.434;2023-02-28T00:40:41;5.53;;;2.40;;
71715;SDS011;59568;52.128;5.434;2023-02-28T00:43:08;4.15;;;1.85;;
71715;SDS011;59568;52.128;5.434;2023-02-28T00:45:34;4.60;;;2.13;;
71715;SDS011;59568;52.128;5.434;2023-02-28T00:48:01;4.43;;;1.92;;
71715;SDS011;59568;52.128;5.434;2023-02-28T00:50:27;4.30;;;2.00;;
71715;SDS011;59568;52.128;5.434;2023-02-28T00:52:54;2.88;;;1.55;;
71715;SDS011;59568;52.128;5.434;2023-02-28T00:55:21;4.53;;;1.60;;
71715;SDS011;59568;52.128;5.434;2023-02-28T00:57:47;4.05;;;1.80;;
71715;SDS011;59568;52.128;5.434;2023-02-28T01:00:14;5.85;;;2.10;;
71715;SDS011;59568;52.128;5.434;2023-02-28T01:02:41;2.20;;;1.03;;
71715;SDS011;59568;52.128;5.434;2023-02-28T01:05:07;4.82;;;1.75;;
71715;SDS011;59568;52.128;5.434;2023-02-28T01:07:34;4.18;;;1.50;;
71715;SDS011;59568;52.128;5.434;2023-02-28T01:10:02;2.20;;;1.13;;
71715;SDS011;59568;52.128;5.434;2023-02-28T01:12:29;4.35;;;1.90;;
71715;SDS011;59568;52.128;5.434;2023-02-28T01:14:56;3.37;;;1.53;;
71715;SDS011;59568;52.128;5.434;2023-02-28T01:17:23;4.80;;;1.40;;
71715;SDS011;59568;52.128;5.434;2023-02-28T01:19:49;3.15;;;1.50;;
71715;SDS011;59568;52.128;5.434;2023-02-28T01:22:19;3.90;;;1.65;;
71715;SDS011;59568;52.128;5.434;2023-02-28T01:24:46;5.88;;;1.83;;
71715;SDS011;59568;52.128;5.434;2023-02-28T01:27:13;5.07;;;1.67;;
71715;SDS011;59568;52.128;5.434;2023-02-28T01:29:41;3.63;;;1.48;;
71715;SDS011;59568;52.128;5.434;2023-02-28T01:32:07;3.28;;;1.80;;
71715;SDS011;59568;52.128;5.434;2023-02-28T01:34:34;2.90;;;1.40;;
71715;SDS011;59568;52.128;5.434;2023-02-28T01:37:00;3.33;;;1.40;;
71715;SDS011;59568;52.128;5.434;2023-02-28T01:39:27;5.80;;;1.60;;
71715;SDS011;59568;52.128;5.434;2023-02-28T01:41:53;2.63;;;1.33;;
71715;SDS011;59568;52.128;5.434;2023-02-28T01:47:27;3.08;;;1.70;;
71715;SDS011;59568;52.128;5.434;2023-02-28T01:50:16;2.47;;;1.30;;
71715;SDS011;59568;52.128;5.434;2023-02-28T01:52:46;4.73;;;1.40;;
71715;SDS011;59568;52.128;5.434;2023-02-28T01:55:14;4.57;;;1.67;;
71715;SDS011;59568;52.128;5.434;2023-02-28T01:57:52;5.60;;;1.70;;
71715;SDS011;59568;52.128;5.434;2023-02-28T02:00:22;6.22;;;1.33;;
71715;SDS011;59568;52.128;5.434;2023-02-28T02:02:53;3.63;;;1.55;;
71715;SDS011;59568;52.128;5.434;2023-02-28T02:05:25;4.80;;;1.37;;
71715;SDS011;59568;52.128;5.434;2023-02-28T02:07:54;4.63;;;1.67;;
71715;SDS011;59568;52.128;5.434;2023-02-28T02:10:33;2.70;;;1.35;;
71715;SDS011;59568;52.128;5.434;2023-02-28T02:16:11;2.50;;;1.20;;
71715;SDS011;59568;52.128;5.434;2023-02-28T02:18:54;3.87;;;1.50;;
71715;SDS011;59568;52.128;5.434;2023-02-28T02:21:41;3.63;;;1.85;;
71715;SDS011;59568;52.128;5.434;2023-02-28T02:36:24;3.30;;;1.50;;
71715;SDS011;59568;52.128;5.434;2023-02-28T02:38:59;3.63;;;1.60;;
71715;SDS011;59568;52.128;5.434;2023-02-28T02:41:39;6.22;;;1.80;;
71715;SDS011;59568;52.128;5.434;2023-02-28T02:44:15;4.63;;;1.60;;
71715;SDS011;59568;52.128;5.434;2023-02-28T02:46:48;4.23;;;1.87;;
71715;SDS011;59568;52.128;5.434;2023-02-28T02:49:24;2.95;;;1.45;;
71715;SDS011;59568;52.128;5.434;2023-02-28T02:51:54;3.10;;;1.40;;
71715;SDS011;59568;52.128;5.434;2023-02-28T02:54:25;4.03;;;1.75;;
71715;SDS011;59568;52.128;5.434;2023-02-28T02:56:56;4.57;;;1.17;;
71715;SDS011;59568;52.128;5.434;2023-02-28T02:59:25;6.10;;;1.60;;
71715;SDS011;59568;52.128;5.434;2023-02-28T03:01:55;3.10;;;1.70;;
71715;SDS011;59568;52.128;5.434;2023-02-28T03:04:26;4.65;;;2.00;;
71715;SDS011;59568;52.128;5.434;2023-02-28T03:06:58;6.05;;;2.00;;
71715;SDS011;59568;52.128;5.434;2023-02-28T03:09:25;3.53;;;1.25;;
71715;SDS011;59568;52.128;5.434;2023-02-28T03:11:53;4.80;;;2.10;;
71715;SDS011;59568;52.128;5.434;2023-02-28T03:17:38;5.50;;;2.20;;
71715;SDS011;59568;52.128;5.434;2023-02-28T03:22:52;5.30;;;1.90;;
71715;SDS011;59568;52.128;5.434;2023-02-28T03:31:44;3.90;;;1.80;;
71715;SDS011;59568;52.128;5.434;2023-02-28T03:34:20;3.92;;;1.65;;
71715;SDS011;59568;52.128;5.434;2023-02-28T03:36:53;4.70;;;2.35;;
71715;SDS011;59568;52.128;5.434;2023-02-28T03:39:24;7.30;;;2.20;;
71715;SDS011;59568;52.128;5.434;2023-02-28T03:41:57;3.42;;;1.63;;
71715;SDS011;59568;52.128;5.434;2023-02-28T03:44:32;3.42;;;1.65;;
71715;SDS011;59568;52.128;5.434;2023-02-28T03:50:22;5.60;;;2.10;;
71715;SDS011;59568;52.128;5.434;2023-02-28T03:52:35;4.47;;;2.37;;
71715;SDS011;59568;52.128;5.434;2023-02-28T03:55:09;6.57;;;2.25;;
71715;SDS011;59568;52.128;5.434;2023-02-28T03:57:43;5.15;;;2.10;;
71715;SDS011;59568;52.128;5.434;2023-02-28T04:00:30;5.35;;;1.90;;
71715;SDS011;59568;52.128;5.434;2023-02-28T04:03:00;5.93;;;1.88;;
71715;SDS011;59568;52.128;5.434;2023-02-28T04:05:27;4.03;;;2.07;;
71715;SDS011;59568;52.128;5.434;2023-02-28T04:08:03;6.43;;;2.10;;
71715;SDS011;59568;52.128;5.434;2023-02-28T04:10:30;3.40;;;1.65;;
71715;SDS011;59568;52.128;5.434;2023-02-28T04:12:57;5.20;;;2.30;;
71715;SDS011;59568;52.128;5.434;2023-02-28T04:15:24;3.28;;;1.60;;
71715;SDS011;59568;52.128;5.434;2023-02-28T04:17:50;5.90;;;2.10;;
71715;SDS011;59568;52.128;5.434;2023-02-28T04:20:19;4.18;;;1.77;;
71715;SDS011;59568;52.128;5.434;2023-02-28T04:22:46;2.20;;;1.05;;
71715;SDS011;59568;52.128;5.434;2023-02-28T04:25:12;4.43;;;1.40;;
71715;SDS011;59568;52.128;5.434;2023-02-28T04:27:39;3.10;;;1.37;;
71715;SDS011;59568;52.128;5.434;2023-02-28T04:30:06;2.25;;;1.30;;
71715;SDS011;59568;52.128;5.434;2023-02-28T04:32:32;5.25;;;1.33;;
71715;SDS011;59568;52.128;5.434;2023-02-28T04:34:59;3.13;;;1.45;;
71715;SDS011;59568;52.128;5.434;2023-02-28T04:37:26;3.88;;;1.20;;
71715;SDS011;59568;52.128;5.434;2023-02-28T04:39:54;2.83;;;1.20;;
71715;SDS011;59568;52.128;5.434;2023-02-28T04:42:21;3.13;;;1.33;;
71715;SDS011;59568;52.128;5.434;2023-02-28T04:44:47;3.45;;;1.63;;
71715;SDS011;59568;52.128;5.434;2023-02-28T04:47:14;4.50;;;1.95;;
71715;SDS011;59568;52.128;5.434;2023-02-28T04:49:40;3.78;;;1.58;;
71715;SDS011;59568;52.128;5.434;2023-02-28T04:52:07;3.70;;;1.67;;
71715;SDS011;59568;52.128;5.434;2023-02-28T04:54:34;3.97;;;1.52;;
71715;SDS011;59568;52.128;5.434;2023-02-28T04:57:01;4.28;;;1.63;;
71715;SDS011;59568;52.128;5.434;2023-02-28T04:59:27;3.78;;;1.20;;
71715;SDS011;59568;52.128;5.434;2023-02-28T05:01:54;2.42;;;1.42;;
71715;SDS011;59568;52.128;5.434;2023-02-28T05:04:21;2.33;;;1.30;;
71715;SDS011;59568;52.128;5.434;2023-02-28T05:06:47;2.15;;;0.93;;
71715;SDS011;59568;52.128;5.434;2023-02-28T05:09:14;3.65;;;1.17;;
71715;SDS011;59568;52.128;5.434;2023-02-28T05:11:41;2.28;;;1.15;;
71715;SDS011;59568;52.128;5.434;2023-02-28T05:14:11;2.40;;;1.40;;
71715;SDS011;59568;52.128;5.434;2023-02-28T05:16:40;5.27;;;1.67;;
71715;SDS011;59568;52.128;5.434;2023-02-28T05:19:07;2.83;;;1.60;;
71715;SDS011;59568;52.128;5.434;2023-02-28T05:21:34;2.28;;;1.58;;
71715;SDS011;59568;52.128;5.434;2023-02-28T05:24:04;2.30;;;1.27;;
71715;SDS011;59568;52.128;5.434;2023-02-28T05:26:39;3.25;;;1.50;;
71715;SDS011;59568;52.128;5.434;2023-02-28T05:29:08;4.10;;;1.77;;
71715;SDS011;59568;52.128;5.434;2023-02-28T05:31:35;3.28;;;1.33;;
71715;SDS011;59568;52.128;5.434;2023-02-28T05:34:03;2.47;;;1.50;;
71715;SDS011;59568;52.128;5.434;2023-02-28T05:36:31;4.13;;;1.33;;
71715;SDS011;59568;52.128;5.434;2023-02-28T05:38:58;2.75;;;1.38;;
71715;SDS011;59568;52.128;5.434;2023-02-28T05:41:24;2.73;;;1.20;;
71715;SDS011;59568;52.128;5.434;2023-02-28T05:43:52;3.38;;;1.25;;
71715;SDS011;59568;52.128;5.434;2023-02-28T05:46:19;3.35;;;1.48;;
71715;SDS011;59568;52.128;5.434;2023-02-28T05:48:46;2.70;;;1.65;;
71715;SDS011;59568;52.128;5.434;2023-02-28T05:51:14;4.95;;;1.30;;
71715;SDS011;59568;52.128;5.434;2023-02-28T05:53:41;3.40;;;1.37;;
71715;SDS011;59568;52.128;5.434;2023-02-28T05:56:08;4.82;;;1.58;;
71715;SDS011;59568;52.128;5.434;2023-02-28T05:58:34;5.10;;;1.50;;
71715;SDS011;59568;52.128;5.434;2023-02-28T06:01:19;3.70;;;1.63;;
71715;SDS011;59568;52.128;5.434;2023-02-28T06:04:06;2.40;;;1.30;;
71715;SDS011;59568;52.128;5.434;2023-02-28T06:06:44;2.80;;;1.10;;
71715;SDS011;59568;52.128;5.434;2023-02-28T06:09:12;3.35;;;1.65;;
71715;SDS011;59568;52.128;5.434;2023-02-28T06:11:39;1.85;;;1.27;;
71715;SDS011;59568;52.128;5.434;2023-02-28T06:14:06;3.97;;;1.38;;
71715;SDS011;59568;52.128;5.434;2023-02-28T06:16:38;3.15;;;1.17;;
71715;SDS011;59568;52.128;5.434;2023-02-28T06:19:08;2.27;;;1.53;;
71715;SDS011;59568;52.128;5.434;2023-02-28T06:21:36;4.10;;;1.83;;
71715;SDS011;59568;52.128;5.434;2023-02-28T06:24:03;3.55;;;1.77;;
71715;SDS011;59568;52.128;5.434;2023-02-28T06:26:30;2.67;;;1.40;;
71715;SDS011;59568;52.128;5.434;2023-02-28T06:28:57;3.72;;;1.73;;
71715;SDS011;59568;52.128;5.434;2023-02-28T06:31:24;3.57;;;1.70;;
71715;SDS011;59568;52.128;5.434;2023-02-28T06:33:52;2.90;;;1.58;;
71715;SDS011;59568;52.128;5.434;2023-02-28T06:36:18;3.30;;;2.13;;
71715;SDS011;59568;52.128;5.434;2023-02-28T06:38:46;4.53;;;1.90;;
71715;SDS011;59568;52.128;5.434;2023-02-28T06:41:17;5.18;;;2.10;;
71715;SDS011;59568;52.128;5.434;2023-02-28T06:43:44;3.37;;;1.83;;
71715;SDS011;59568;52.128;5.434;2023-02-28T06:46:11;3.53;;;2.15;;
71715;SDS011;59568;52.128;5.434;2023-02-28T06:48:40;4.53;;;2.33;;
71715;SDS011;59568;52.128;5.434;2023-02-28T06:51:08;3.42;;;1.80;;
71715;SDS011;59568;52.128;5.434;2023-02-28T06:53:40;5.10;;;2.03;;
71715;SDS011;59568;52.128;5.434;2023-02-28T06:56:09;4.10;;;2.00;;
71715;SDS011;59568;52.128;5.434;2023-02-28T06:58:37;4.63;;;2.33;;
71715;SDS011;59568;52.128;5.434;2023-02-28T07:01:06;2.85;;;2.13;;
71715;SDS011;59568;52.128;5.434;2023-02-28T07:03:34;6.20;;;2.30;;
71715;SDS011;59568;52.128;5.434;2023-02-28T07:06:02;6.22;;;2.08;;
71715;SDS011;59568;52.128;5.434;2023-02-28T07:08:31;3.07;;;1.97;;
71715;SDS011;59568;52.128;5.434;2023-02-28T07:10:57;3.67;;;1.80;;
71715;SDS011;59568;52.128;5.434;2023-02-28T07:13:24;5.90;;;1.90;;
71715;SDS011;59568;52.128;5.434;2023-02-28T07:16:01;4.20;;;1.80;;
71715;SDS011;59568;52.128;5.434;2023-02-28T07:18:33;3.35;;;1.90;;
71715;SDS011;59568;52.128;5.434;2023-02-28T07:21:03;3.40;;;2.03;;
71715;SDS011;59568;52.128;5.434;2023-02-28T07:23:31;4.45;;;2.10;;
71715;SDS011;59568;52.128;5.434;2023-02-28T07:25:57;3.72;;;1.83;;
71715;SDS011;59568;52.128;5.434;2023-02-28T07:28:25;4.47;;;1.60;;
71715;SDS011;59568;52.128;5.434;2023-02-28T07:30:51;7.68;;;1.70;;
71715;SDS011;59568;52.128;5.434;2023-02-28T07:33:18;3.73;;;2.40;;
71715;SDS011;59568;52.128;5.434;2023-02-28T07:35:45;4.15;;;1.92;;
71715;SDS011;59568;52.128;5.434;2023-02-28T07:38:11;3.38;;;2.17;;
71715;SDS011;59568;52.128;5.434;2023-02-28T07:40:39;4.10;;;2.05;;
71715;SDS011;59568;52.128;5.434;2023-02-28T07:43:07;4.00;;;2.20;;
71715;SDS011;59568;52.128;5.434;2023-02-28T07:45:34;4.60;;;2.13;;
71715;SDS011;59568;52.128;5.434;2023-02-28T07:48:01;2.55;;;1.90;;
71715;SDS011;59568;52.128;5.434;2023-02-28T07:50:28;4.25;;;2.33;;
71715;SDS011;59568;52.128;5.434;2023-02-28T07:52:58;3.20;;;2.13;;
71715;SDS011;59568;52.128;5.434;2023-02-28T07:55:26;9.25;;;2.25;;
71715;SDS011;59568;52.128;5.434;2023-02-28T07:57:53;5.00;;;2.20;;
71715;SDS011;59568;52.128;5.434;2023-02-28T08:00:32;4.72;;;2.92;;
71715;SDS011;59568;52.128;5.434;2023-02-28T08:02:58;3.25;;;2.00;;
71715;SDS011;59568;52.128;5.434;2023-02-28T08:05:25;3.38;;;2.15;;
71715;SDS011;59568;52.128;5.434;2023-02-28T08:07:52;4.05;;;2.15;;
71715;SDS011;59568;52.128;5.434;2023-02-28T08:10:19;4.90;;;2.03;;
71715;SDS011;59568;52.128;5.434;2023-02-28T08:12:45;6.50;;;2.30;;
71715;SDS011;59568;52.128;5.434;2023-02-28T08:15:12;4.32;;;2.20;;
71715;SDS011;59568;52.128;5.434;2023-02-28T08:17:38;3.42;;;2.00;;
71715;SDS011;59568;52.128;5.434;2023-02-28T08:20:05;3.72;;;2.20;;
71715;SDS011;59568;52.128;5.434;2023-02-28T08:22:33;6.53;;;2.00;;
71715;SDS011;59568;52.128;5.434;2023-02-28T08:24:59;4.03;;;2.53;;
71715;SDS011;59568;52.128;5.434;2023-02-28T08:27:26;2.92;;;1.90;;
71715;SDS011;59568;52.128;5.434;2023-02-28T08:29:52;4.68;;;2.00;;
71715;SDS011;59568;52.128;5.434;2023-02-28T08:32:19;3.70;;;2.10;;
71715;SDS011;59568;52.128;5.434;2023-02-28T08:34:55;3.60;;;2.20;;
71715;SDS011;59568;52.128;5.434;2023-02-28T08:37:21;3.60;;;1.88;;
71715;SDS011;59568;52.128;5.434;2023-02-28T08:39:48;4.10;;;2.42;;
71715;SDS011;59568;52.128;5.434;2023-02-28T08:42:15;3.55;;;2.00;;
71715;SDS011;59568;52.128;5.434;2023-02-28T08:44:41;6.10;;;2.10;;
71715;SDS011;59568;52.128;5.434;2023-02-28T08:47:08;3.50;;;1.83;;
71715;SDS011;59568;52.128;5.434;2023-02-28T08:49:35;3.42;;;2.03;;
71715;SDS011;59568;52.128;5.434;2023-02-28T08:52:02;3.92;;;2.13;;
71715;SDS011;59568;52.128;5.434;2023-02-28T08:54:29;5.35;;;2.30;;
71715;SDS011;59568;52.128;5.434;2023-02-28T08:56:57;3.38;;;1.70;;
71715;SDS011;59568;52.128;5.434;2023-02-28T08:59:24;4.27;;;2.17;;
71715;SDS011;59568;52.128;5.434;2023-02-28T09:01:50;3.15;;;1.90;;
71715;SDS011;59568;52.128;5.434;2023-02-28T09:04:17;3.42;;;1.67;;
71715;SDS011;59568;52.128;5.434;2023-02-28T09:06:46;3.08;;;1.35;;
71715;SDS011;59568;52.128;5.434;2023-02-28T09:09:15;2.88;;;1.38;;
71715;SDS011;59568;52.128;5.434;2023-02-28T09:11:42;3.87;;;1.17;;
71715;SDS011;59568;52.128;5.434;2023-02-28T09:14:08;2.58;;;1.05;;
71715;SDS011;59568;52.128;5.434;2023-02-28T09:16:35;2.78;;;0.85;;
71715;SDS011;59568;52.128;5.434;2023-02-28T09:19:02;3.20;;;0.70;;
71715;SDS011;59568;52.128;5.434;2023-02-28T09:21:29;2.42;;;0.85;;
71715;SDS011;59568;52.128;5.434;2023-02-28T09:23:56;2.33;;;0.80;;
71715;SDS011;59568;52.128;5.434;2023-02-28T09:26:23;2.63;;;0.90;;
71715;SDS011;59568;52.128;5.434;2023-02-28T09:29:03;1.95;;;0.70;;
71715;SDS011;59568;52.128;5.434;2023-02-28T09:31:30;2.00;;;0.70;;
71715;SDS011;59568;52.128;5.434;2023-02-28T09:33:57;1.58;;;0.70;;
71715;SDS011;59568;52.128;5.434;2023-02-28T09:36:25;1.83;;;0.60;;
71715;SDS011;59568;52.128;5.434;2023-02-28T09:39:09;2.90;;;0.70;;
71715;SDS011;59568;52.128;5.434;2023-02-28T09:41:40;1.42;;;0.88;;
71715;SDS011;59568;52.128;5.434;2023-02-28T09:47:08;3.42;;;0.75;;
71715;SDS011;59568;52.128;5.434;2023-02-28T09:49:42;1.87;;;0.60;;
71715;SDS011;59568;52.128;5.434;2023-02-28T09:52:19;3.20;;;0.80;;
71715;SDS011;59568;52.128;5.434;2023-02-28T09:54:50;1.17;;;0.70;;
71715;SDS011;59568;52.128;5.434;2023-02-28T09:57:32;1.13;;;0.60;;
71715;SDS011;59568;52.128;5.434;2023-02-28T10:05:41;1.75;;;0.80;;
71715;SDS011;59568;52.128;5.434;2023-02-28T10:11:09;2.75;;;0.95;;
71715;SDS011;59568;52.128;5.434;2023-02-28T10:16:12;1.10;;;0.70;;
71715;SDS011;59568;52.128;5.434;2023-02-28T10:18:50;1.77;;;0.70;;
71715;SDS011;59568;52.128;5.434;2023-02-28T10:21:31;1.75;;;0.85;;
71715;SDS011;59568;52.128;5.434;2023-02-28T10:27:01;1.30;;;0.70;;
71715;SDS011;59568;52.128;5.434;2023-02-28T10:29:38;2.40;;;0.73;;
71715;SDS011;59568;52.128;5.434;2023-02-28T10:32:15;1.40;;;0.60;;
71715;SDS011;59568;52.128;5.434;2023-02-28T10:34:44;1.02;;;0.70;;
71715;SDS011;59568;52.128;5.434;2023-02-28T10:37:17;2.28;;;0.80;;
71715;SDS011;59568;52.128;5.434;2023-02-28T10:39:46;1.27;;;0.50;;
71715;SDS011;59568;52.128;5.434;2023-02-28T10:42:20;2.13;;;0.60;;
71715;SDS011;59568;52.128;5.434;2023-02-28T10:44:47;2.65;;;1.00;;
71715;SDS011;59568;52.128;5.434;2023-02-28T10:47:15;1.55;;;0.73;;
71715;SDS011;59568;52.128;5.434;2023-02-28T10:49:47;1.58;;;0.93;;
71715;SDS011;59568;52.128;5.434;2023-02-28T10:52:31;1.80;;;0.82;;
71715;SDS011;59568;52.128;5.434;2023-02-28T10:55:13;2.10;;;0.77;;
71715;SDS011;59568;52.128;5.434;2023-02-28T10:57:47;1.67;;;0.70;;
71715;SDS011;59568;52.128;5.434;2023-02-28T11:00:21;1.20;;;0.63;;
71715;SDS011;59568;52.128;5.434;2023-02-28T11:02:51;1.30;;;0.90;;
71715;SDS011;59568;52.128;5.434;2023-02-28T11:05:25;1.70;;;0.68;;
71715;SDS011;59568;52.128;5.434;2023-02-28T11:10:37;2.25;;;0.57;;
71715;SDS011;59568;52.128;5.434;2023-02-28T11:13:04;2.05;;;0.77;;
71715;SDS011;59568;52.128;5.434;2023-02-28T11:15:34;1.40;;;0.63;;
71715;SDS011;59568;52.128;5.434;2023-02-28T11:20:47;1.53;;;0.70;;
71715;SDS011;59568;52.128;5.434;2023-02-28T11:23:17;1.40;;;0.70;;
71715;SDS011;59568;52.128;5.434;2023-02-28T11:25:50;2.05;;;0.73;;
71715;SDS011;59568;52.128;5.434;2023-02-28T11:31:14;2.13;;;0.70;;
71715;SDS011;59568;52.128;5.434;2023-02-28T11:33:47;1.40;;;0.70;;
71715;SDS011;59568;52.128;5.434;2023-02-28T11:36:23;1.77;;;0.85;;
71715;SDS011;59568;52.128;5.434;2023-02-28T11:38:56;2.25;;;0.65;;
71715;SDS011;59568;52.128;5.434;2023-02-28T11:44:19;2.22;;;0.70;;
71715;SDS011;59568;52.128;5.434;2023-02-28T11:47:04;1.70;;;0.63;;
71715;SDS011;59568;52.128;5.434;2023-02-28T11:55:32;2.17;;;0.68;;
71715;SDS011;59568;52.128;5.434;2023-02-28T12:01:07;1.33;;;0.50;;
71715;SDS011;59568;52.128;5.434;2023-02-28T12:03:49;2.40;;;0.95;;
71715;SDS011;59568;52.128;5.434;2023-02-28T12:12:18;1.95;;;0.73;;
71715;SDS011;59568;52.128;5.434;2023-02-28T12:28:26;2.60;;;0.80;;
71715;SDS011;59568;52.128;5.434;2023-02-28T12:31:04;1.98;;;0.80;;
71715;SDS011;59568;52.128;5.434;2023-02-28T12:33:36;2.22;;;0.90;;
71715;SDS011;59568;52.128;5.434;2023-02-28T12:36:11;1.33;;;0.70;;
71715;SDS011;59568;52.128;5.434;2023-02-28T12:38:45;1.50;;;0.60;;
71715;SDS011;59568;52.128;5.434;2023-02-28T12:41:19;3.70;;;0.80;;
71715;SDS011;59568;52.128;5.434;2023-02-28T12:43:56;2.15;;;1.00;;
71715;SDS011;59568;52.128;5.434;2023-02-28T12:46:36;1.92;;;0.80;;
71715;SDS011;59568;52.128;5.434;2023-02-28T12:49:14;1.77;;;0.95;;
71715;SDS011;59568;52.128;5.434;2023-02-28T12:51:45;2.85;;;0.85;;
71715;SDS011;59568;52.128;5.434;2023-02-28T12:54:15;1.40;;;0.77;;
71715;SDS011;59568;52.128;5.434;2023-02-28T12:59:23;1.95;;;1.15;;
71715;SDS011;59568;52.128;5.434;2023-02-28T13:02:21;1.80;;;0.90;;
71715;SDS011;59568;52.128;5.434;2023-02-28T13:10:51;4.88;;;1.70;;
71715;SDS011;59568;52.128;5.434;2023-02-28T13:13:24;1.85;;;0.90;;
71715;SDS011;59568;52.128;5.434;2023-02-28T13:16:04;2.58;;;1.10;;
71715;SDS011;59568;52.128;5.434;2023-02-28T13:20:59;1.70;;;0.90;;
71715;SDS011;59568;52.128;5.434;2023-02-28T13:23:41;2.15;;;0.75;;
71715;SDS011;59568;52.128;5.434;2023-02-28T13:28:58;2.00;;;1.08;;
71715;SDS011;59568;52.128;5.434;2023-02-28T13:31:25;1.90;;;1.00;;
71715;SDS011;59568;52.128;5.434;2023-02-28T13:36:32;3.22;;;0.82;;
71715;SDS011;59568;52.128;5.434;2023-02-28T13:38:59;1.70;;;0.88;;
71715;SDS011;59568;52.128;5.434;2023-02-28T13:46:32;2.13;;;1.03;;
71715;SDS011;59568;52.128;5.434;2023-02-28T13:49:19;2.70;;;1.10;;
71715;SDS011;59568;52.128;5.434;2023-02-28T13:51:52;3.17;;;1.15;;
71715;SDS011;59568;52.128;5.434;2023-02-28T14:05:37;2.70;;;1.40;;
71715;SDS011;59568;52.128;5.434;2023-02-28T14:08:11;2.47;;;1.30;;
71715;SDS011;59568;52.128;5.434;2023-02-28T14:10:44;2.03;;;1.20;;
71715;SDS011;59568;52.128;5.434;2023-02-28T14:16:13;2.38;;;1.38;;
71715;SDS011;59568;52.128;5.434;2023-02-28T14:19:01;4.20;;;1.45;;
71715;SDS011;59568;52.128;5.434;2023-02-28T14:27:11;1.57;;;0.90;;
71715;SDS011;59568;52.128;5.434;2023-02-28T14:37:46;2.85;;;1.35;;
71715;SDS011;59568;52.128;5.434;2023-02-28T14:40:22;2.40;;;1.07;;
71715;SDS011;59568;52.128;5.434;2023-02-28T14:43:02;2.38;;;1.10;;
71715;SDS011;59568;52.128;5.434;2023-02-28T14:45:31;2.28;;;1.40;;
71715;SDS011;59568;52.128;5.434;2023-02-28T14:48:00;3.53;;;1.30;;
71715;SDS011;59568;52.128;5.434;2023-02-28T14:50:33;1.73;;;1.20;;
71715;SDS011;59568;52.128;5.434;2023-02-28T14:53:02;2.97;;;0.93;;
71715;SDS011;59568;52.128;5.434;2023-02-28T14:55:30;2.53;;;1.08;;
71715;SDS011;59568;52.128;5.434;2023-02-28T14:58:01;2.03;;;1.10;;
71715;SDS011;59568;52.128;5.434;2023-02-28T15:00:33;1.98;;;1.05;;
71715;SDS011;59568;52.128;5.434;2023-02-28T15:03:19;2.30;;;1.23;;
71715;SDS011;59568;52.128;5.434;2023-02-28T15:08:24;2.00;;;1.10;;
71715;SDS011;59568;52.128;5.434;2023-02-28T15:10:58;3.05;;;1.33;;
71715;SDS011;59568;52.128;5.434;2023-02-28T15:13:34;2.75;;;1.40;;
71715;SDS011;59568;52.128;5.434;2023-02-28T15:16:10;2.22;;;1.23;;
71715;SDS011;59568;52.128;5.434;2023-02-28T15:21:20;2.05;;;1.08;;
71715;SDS011;59568;52.128;5.434;2023-02-28T15:23:52;2.15;;;0.90;;
71715;SDS011;59568;52.128;5.434;2023-02-28T15:26:23;4.93;;;1.00;;
71715;SDS011;59568;52.128;5.434;2023-02-28T15:28:55;1.42;;;1.00;;
71715;SDS011;59568;52.128;5.434;2023-02-28T15:31:40;2.00;;;0.77;;
71715;SDS011;59568;52.128;5.434;2023-02-28T15:37:06;1.77;;;0.90;;
71715;SDS011;59568;52.128;5.434;2023-02-28T15:39:57;2.17;;;1.10;;
71715;SDS011;59568;52.128;5.434;2023-02-28T15:42:34;2.42;;;1.05;;
71715;SDS011;59568;52.128;5.434;2023-02-28T15:45:00;2.83;;;1.23;;
71715;SDS011;59568;52.128;5.434;2023-02-28T15:47:27;2.45;;;1.00;;
71715;SDS011;59568;52.128;5.434;2023-02-28T15:50:00;2.20;;;0.95;;
71715;SDS011;59568;52.128;5.434;2023-02-28T15:54:58;1.52;;;0.75;;
71715;SDS011;59568;52.128;5.434;2023-02-28T15:57:26;2.13;;;0.90;;
71715;SDS011;59568;52.128;5.434;2023-02-28T15:59:55;2.03;;;1.08;;
71715;SDS011;59568;52.128;5.434;2023-02-28T16:02:30;3.15;;;1.05;;
71715;SDS011;59568;52.128;5.434;2023-02-28T16:07:29;3.85;;;0.95;;
71715;SDS011;59568;52.128;5.434;2023-02-28T16:09:55;2.67;;;0.93;;
71715;SDS011;59568;52.128;5.434;2023-02-28T16:12:25;2.50;;;0.85;;
71715;SDS011;59568;52.128;5.434;2023-02-28T16:14:57;2.60;;;0.90;;
71715;SDS011;59568;52.128;5.434;2023-02-28T16:17:28;1.67;;;0.82;;
71715;SDS011;59568;52.128;5.434;2023-02-28T16:19:59;2.00;;;0.90;;
71715;SDS011;59568;52.128;5.434;2023-02-28T16:22:26;2.47;;;0.90;;
71715;SDS011;59568;52.128;5.434;2023-02-28T16:24:52;1.60;;;0.90;;
71715;SDS011;59568;52.128;5.434;2023-02-28T16:29:47;1.55;;;1.02;;
71715;SDS011;59568;52.128;5.434;2023-02-28T16:32:15;2.15;;;1.20;;
71715;SDS011;59568;52.128;5.434;2023-02-28T16:34:43;1.50;;;0.80;;
71715;SDS011;59568;52.128;5.434;2023-02-28T16:37:14;4.05;;;1.17;;
71715;SDS011;59568;52.128;5.434;2023-02-28T16:39:42;4.28;;;2.05;;
71715;SDS011;59568;52.128;5.434;2023-02-28T16:42:14;6.90;;;3.85;;
71715;SDS011;59568;52.128;5.434;2023-02-28T16:44:46;7.60;;;3.50;;
71715;SDS011;59568;52.128;5.434;2023-02-28T16:47:12;3.47;;;2.00;;
71715;SDS011;59568;52.128;5.434;2023-02-28T16:49:39;4.63;;;1.55;;
71715;SDS011;59568;52.128;5.434;2023-02-28T16:52:09;4.07;;;2.45;;
71715;SDS011;59568;52.128;5.434;2023-02-28T16:54:38;3.55;;;2.00;;
71715;SDS011;59568;52.128;5.434;2023-02-28T16:57:06;3.65;;;2.17;;
71715;SDS011;59568;52.128;5.434;2023-02-28T16:59:39;4.23;;;1.90;;
71715;SDS011;59568;52.128;5.434;2023-02-28T17:02:13;3.88;;;1.73;;
71715;SDS011;59568;52.128;5.434;2023-02-28T17:04:41;3.50;;;1.63;;
71715;SDS011;59568;52.128;5.434;2023-02-28T17:07:10;3.17;;;1.65;;
71715;SDS011;59568;52.128;5.434;2023-02-28T17:09:38;3.60;;;1.90;;
71715;SDS011;59568;52.128;5.434;2023-02-28T17:12:09;3.70;;;1.73;;
71715;SDS011;59568;52.128;5.434;2023-02-28T17:14:37;3.45;;;1.85;;
71715;SDS011;59568;52.128;5.434;2023-02-28T17:17:04;3.97;;;2.20;;
71715;SDS011;59568;52.128;5.434;2023-02-28T17:19:32;4.55;;;2.40;;
71715;SDS011;59568;52.128;5.434;2023-02-28T17:22:00;4.38;;;1.60;;
71715;SDS011;59568;52.128;5.434;2023-02-28T17:24:26;5.80;;;2.40;;
71715;SDS011;59568;52.128;5.434;2023-02-28T17:26:56;6.18;;;3.30;;
71715;SDS011;59568;52.128;5.434;2023-02-28T17:29:23;4.68;;;2.30;;
71715;SDS011;59568;52.128;5.434;2023-02-28T17:31:50;5.40;;;2.47;;
71715;SDS011;59568;52.128;5.434;2023-02-28T17:34:17;6.35;;;2.83;;
71715;SDS011;59568;52.128;5.434;2023-02-28T17:36:46;8.73;;;2.80;;
71715;SDS011;59568;52.128;5.434;2023-02-28T17:39:13;5.78;;;3.03;;
71715;SDS011;59568;52.128;5.434;2023-02-28T17:41:41;5.78;;;2.90;;